Aviation Digital Data Service (ADDS)

Output produced by TAFs form (1707 UTC 29 May 2017)
found at http://www.aviationweather.gov/adds/tafs/
 
METAR text: ZSSS 291700Z 14006MPS CAVOK 22/19 Q1010 NOSIG
Conditions at: ZSSS (SHANGHAI/HONGQIA, CN) observed 1700 UTC 29 May 2017
Temperature: 22.0°C (72°F)
Dewpoint: 19.0°C (66°F) [RH = 83%]
Pressure (altimeter): 29.82 inches Hg (1010.0 mb)
Winds: from the SE (140 degrees) at 14 MPH (12 knots; 6.2 m/s)
Visibility: 6 or more miles (10+ km)
Ceiling: ceiling and visibility are OK
Clouds: unknown
Weather: no significant weather observed at this time

Forecast for: ZSSS (SHANGHAI/HONGQIA, CN)
Text: TAF ZSSS 291511Z 2918/3018 15004MPS 5000 BR SCT020 TX31/3006Z TN21/2921Z
Forecast period: 1800 UTC 29 May 2017 to 1800 UTC 30 May 2017
Forecast type: FROM: standard forecast or significant change
Winds: from the SSE (150 degrees) at 9 MPH (8 knots; 4.2 m/s)
Visibility: 3 miles (5 km)
Clouds: scattered clouds at 2000 feet AGL
Weather: BR  (mist)